createdAt,value
2022-09-10T15:01:09.770Z,16.30
2022-09-10T15:04:17.251Z,16.40
2022-09-10T15:07:19.041Z,16.40
2022-09-10T15:10:20.695Z,16.50
2022-09-10T15:13:22.452Z,16.40
2022-09-10T15:16:24.129Z,16.50
2022-09-10T15:19:26.101Z,16.60
2022-09-10T15:22:31.013Z,16.70
2022-09-10T15:25:47.314Z,16.70
2022-09-10T15:28:48.956Z,16.80
2022-09-10T15:31:51.298Z,16.80
2022-09-10T15:34:52.970Z,16.60
2022-09-10T15:37:54.655Z,16.60
2022-09-10T15:41:12.659Z,16.60
2022-09-10T15:44:14.986Z,16.60
2022-09-10T15:47:16.590Z,16.70
2022-09-10T15:50:18.251Z,16.80
2022-09-10T15:53:20.646Z,16.70
2022-09-10T15:56:26.563Z,16.70
2022-09-10T15:59:28.543Z,16.80
2022-09-10T16:02:30.235Z,16.70
2022-09-10T16:05:35.078Z,16.60
2022-09-10T16:08:36.788Z,16.70
2022-09-10T16:11:41.261Z,16.80
2022-09-10T16:14:44.617Z,16.80
2022-09-10T16:17:46.370Z,16.80
2022-09-10T16:20:48.090Z,16.80
2022-09-10T16:23:51.669Z,16.80
2022-09-10T16:26:54.794Z,16.90
2022-09-10T16:29:56.420Z,16.90
2022-09-10T16:32:58.598Z,16.80
2022-09-10T16:36:04.714Z,16.90
2022-09-10T16:39:12.197Z,16.90
2022-09-10T16:42:13.852Z,16.90
2022-09-10T16:45:15.590Z,16.90
2022-09-10T16:48:17.282Z,16.80
2022-09-10T16:51:46.333Z,16.80
2022-09-10T16:54:47.973Z,16.80
2022-09-10T16:57:49.815Z,16.80
2022-09-10T17:00:51.939Z,16.80
2022-09-10T17:03:54.156Z,16.70
2022-09-10T17:06:57.281Z,16.70
2022-09-10T17:10:00.993Z,16.60
2022-09-10T17:13:02.913Z,16.60
2022-09-10T17:16:23.106Z,16.50
2022-09-10T17:19:26.214Z,16.50
2022-09-10T17:22:27.836Z,16.40
2022-09-10T17:25:29.535Z,16.40
2022-09-10T17:28:33.054Z,16.30
2022-09-10T17:31:35.663Z,16.30
2022-09-10T17:34:37.289Z,16.30
2022-09-10T17:37:40.623Z,16.30
2022-09-10T17:40:42.259Z,16.30
2022-09-10T17:43:44.449Z,16.20
2022-09-10T17:46:46.319Z,16.20
2022-09-10T17:49:48.082Z,16.20
2022-09-10T17:52:51.080Z,16.20
2022-09-10T17:55:52.778Z,16.20
2022-09-10T17:59:01.962Z,16.10
2022-09-10T18:02:04.018Z,16.10
2022-09-10T18:05:05.897Z,16.00
2022-09-10T18:08:07.579Z,16.00
2022-09-10T18:11:30.892Z,16.00
2022-09-10T18:14:32.637Z,16.00
2022-09-10T18:17:34.292Z,16.00
2022-09-10T18:20:36.017Z,16.00
2022-09-10T18:23:38.456Z,15.90
2022-09-10T18:26:43.347Z,15.80
2022-09-10T18:29:45.184Z,15.80
2022-09-10T18:32:47.818Z,15.80
2022-09-10T18:35:50.066Z,15.70
2022-09-10T18:38:52.708Z,15.70
2022-09-10T18:41:56.446Z,15.70
2022-09-10T18:44:58.138Z,15.70
2022-09-10T18:48:00.932Z,15.60
2022-09-10T18:51:10.876Z,15.60
2022-09-10T18:54:15.096Z,15.60
2022-09-10T18:57:16.696Z,15.60
2022-09-10T19:00:18.500Z,15.70
2022-09-10T19:03:20.154Z,15.60
2022-09-10T19:06:26.736Z,15.60
2022-09-10T19:09:31.585Z,15.70
2022-09-10T19:12:33.188Z,15.70
2022-09-10T19:15:34.781Z,15.70
2022-09-10T19:18:36.402Z,15.50
2022-09-10T19:21:38.326Z,15.60
2022-09-10T19:24:56.175Z,15.60
2022-09-10T19:27:58.005Z,15.60
2022-09-10T19:31:03.254Z,15.60
2022-09-10T19:34:07.441Z,15.60
2022-09-10T19:37:09.713Z,15.60
2022-09-10T19:40:21.595Z,15.50
2022-09-10T19:43:23.268Z,15.50
2022-09-10T19:46:28.402Z,15.50
2022-09-10T19:49:30.177Z,15.50
2022-09-10T19:52:32.629Z,15.40
2022-09-10T19:55:34.805Z,15.40
2022-09-10T19:58:37.488Z,15.40
2022-09-10T20:01:41.771Z,15.30
2022-09-10T20:04:43.546Z,15.40
2022-09-10T20:07:45.204Z,15.30
2022-09-10T20:10:51.775Z,15.30
2022-09-10T20:13:55.842Z,15.40
2022-09-10T20:16:57.554Z,15.30
2022-09-10T20:19:59.152Z,15.30
2022-09-10T20:23:01.450Z,15.40
2022-09-10T20:26:33.371Z,15.30
2022-09-10T20:29:35.026Z,15.30
2022-09-10T20:32:36.893Z,15.30
2022-09-10T20:35:42.436Z,15.20
2022-09-10T20:38:44.896Z,15.20
2022-09-10T20:41:46.758Z,15.20
2022-09-10T20:44:48.616Z,15.30
2022-09-10T20:47:50.219Z,15.20
2022-09-10T20:50:56.524Z,15.30
2022-09-10T20:53:58.225Z,15.30
2022-09-10T20:56:59.846Z,15.30
2022-09-10T21:00:01.668Z,15.30
2022-09-10T21:03:03.656Z,15.30
2022-09-10T21:06:05.556Z,15.30
2022-09-10T21:09:07.256Z,15.30
2022-09-10T21:12:11.283Z,15.20
2022-09-10T21:15:13.022Z,15.20
2022-09-10T21:18:14.601Z,15.20
2022-09-10T21:21:17.977Z,15.20
2022-09-10T21:24:24.802Z,15.20
2022-09-10T21:27:27.046Z,15.20
2022-09-10T21:30:29.104Z,15.20
2022-09-10T21:33:31.474Z,15.10
2022-09-10T21:36:35.206Z,15.10
2022-09-10T21:39:38.881Z,15.10
2022-09-10T21:42:40.605Z,15.10
2022-09-10T21:45:42.187Z,15.10
2022-09-10T21:48:44.002Z,15.20
2022-09-10T21:51:45.756Z,15.10
2022-09-10T21:54:47.494Z,15.10
2022-09-10T21:57:49.117Z,15.10
2022-09-10T22:00:50.818Z,15.10
2022-09-10T22:03:53.324Z,15.10
2022-09-10T22:06:56.625Z,15.10
2022-09-10T22:09:58.432Z,15.10
2022-09-10T22:13:00.093Z,15.10
2022-09-10T22:16:02.042Z,15.10
2022-09-10T22:19:07.849Z,15.00
2022-09-10T22:22:11.144Z,14.90
2022-09-10T22:25:12.767Z,14.90
2022-09-10T22:28:14.370Z,14.90
2022-09-10T22:31:19.086Z,14.90
2022-09-10T22:34:20.931Z,14.90
2022-09-10T22:37:22.693Z,14.90
2022-09-10T22:40:24.924Z,14.90
2022-09-10T22:43:26.576Z,14.90
2022-09-10T22:46:28.951Z,14.90
2022-09-10T22:49:30.644Z,14.90
2022-09-10T22:52:34.051Z,14.90
2022-09-10T22:55:35.660Z,14.90
2022-09-10T22:58:37.615Z,14.80
2022-09-10T23:01:40.055Z,14.80
2022-09-10T23:04:42.771Z,14.80
2022-09-10T23:07:44.463Z,14.80
2022-09-10T23:10:46.086Z,14.90
2022-09-10T23:13:50.387Z,14.90
2022-09-10T23:16:52.050Z,14.80
2022-09-10T23:20:31.005Z,14.90
2022-09-10T23:23:32.964Z,14.80
2022-09-10T23:26:34.707Z,14.80
2022-09-10T23:29:36.718Z,14.80
2022-09-10T23:32:38.336Z,14.70
2022-09-10T23:35:39.935Z,14.80
2022-09-10T23:38:43.483Z,14.80
2022-09-10T23:41:45.856Z,14.70
2022-09-10T23:44:47.454Z,14.80
2022-09-10T23:47:49.297Z,14.70
2022-09-10T23:50:52.160Z,14.80
2022-09-10T23:53:55.865Z,14.70
2022-09-10T23:56:57.472Z,14.70
2022-09-10T23:59:59.968Z,14.70
